Hovedside
METAR-TAF:

METAR-TAF

Lufthavner :

Pskov, Russland

breddegrad: 57-47-06N, lengdegrad: 028-23-54E, høyde over havet: 47 m

Gjeldene værobservasjon

Denne rapporten ble laget for 1 time og 7 minutter siden, klokken 04:00 UTC
Flau vind
Temperatur 6°C
Luftfuktighet 70%
Trykk 1024 hPa
Sikt: 5000 m

METAR: ULOO 250400Z AUTO 00000MPS 5000 // NCD 06/01 Q1024 RMK QFE764

Tid: 08:07 (05:07 UTC)

Varsel

Denne rapporten ble laget for 18 timer og 7 minutter siden, klokken 11:00 UTC
Varsel gyldig fra 24. klokken 12 UTC til 24. klokken 21 UTC
Vind 2 kt fra skiftende retning
Sikt 10 km eller mer
ingen skyer under 1500 m og ingen bygeskyer
Midlertidig
fra 24. klokken 12 UTC til 24. klokken 16 UTC
Vind 6 kt fra Sør-sørvest
Blir
fra 24. klokken 16 UTC til 24. klokken 18 UTC
Vind 6 kt fra Øst

TAF: ULOO 241100Z 2412/2421 VRB01MPS CAVOK TEMPO 2412/2416 20003MPS BECMG 2416/2418 10003MPS

Værobservasjoner og værvarsel for over 4000 flyplasser (METAR- og TAF-rapporter).

Tilgjengelige stasjoner er representert av de røde og gule prikkene på kartet.

Hold musepekeren over prikken for å se navnet på stasjonen.

Klikk så for å se værobservasjoner og -varsler.

For å forandre kartet kan du klikke på den grønne knappen med svart kryss for å zoome inn, på den grønne knappen med strek for å zoome ut, eller på de grønne pilene for å se tilstøtende kart.


METAR-TAF: